createdAt,value
2022-12-27T00:02:39.575Z,1.10
2022-12-27T00:05:43.897Z,1.00
2022-12-27T00:08:48.502Z,1.37
2022-12-27T00:11:56.301Z,1.30
2022-12-27T00:15:02.831Z,1.10
2022-12-27T00:18:05.998Z,1.20
2022-12-27T00:21:11.143Z,1.07
2022-12-27T00:24:15.465Z,1.20
2022-12-27T00:27:18.559Z,1.00
2022-12-27T00:30:21.520Z,0.80
2022-12-27T00:33:24.933Z,1.47
2022-12-27T00:36:29.855Z,1.00
2022-12-27T00:39:34.166Z,1.30
2022-12-27T00:42:37.169Z,1.30
2022-12-27T00:45:40.267Z,1.10
2022-12-27T00:48:44.323Z,1.10
2022-12-27T00:51:47.275Z,1.50
2022-12-27T00:54:51.589Z,1.27
2022-12-27T00:57:55.612Z,0.97
2022-12-27T01:01:07.817Z,1.50
2022-12-27T01:04:13.291Z,1.17
2022-12-27T01:07:16.296Z,0.97
2022-12-27T01:10:20.727Z,1.30
2022-12-27T01:13:23.698Z,1.50
2022-12-27T01:16:27.949Z,1.40
2022-12-27T01:19:31.140Z,1.37
2022-12-27T01:22:34.099Z,1.60
2022-12-27T01:25:38.616Z,1.20
2022-12-27T01:28:41.685Z,1.30
2022-12-27T01:31:44.690Z,1.47
2022-12-27T01:34:47.668Z,1.53
2022-12-27T01:37:50.653Z,1.23
2022-12-27T01:40:54.930Z,1.40
2022-12-27T01:43:56.971Z,1.40
2022-12-27T01:47:00.045Z,1.13
2022-12-27T01:50:09.661Z,1.87
2022-12-27T01:53:16.514Z,1.30
2022-12-27T01:56:25.085Z,1.60
2022-12-27T01:59:28.122Z,1.50
2022-12-27T02:02:31.227Z,1.13
2022-12-27T02:05:35.017Z,1.50
2022-12-27T02:08:44.638Z,0.90
2022-12-27T02:11:52.542Z,1.70
2022-12-27T02:14:55.718Z,1.17
2022-12-27T02:17:58.795Z,1.33
2022-12-27T02:21:27.233Z,1.03
2022-12-27T02:24:44.775Z,1.47
2022-12-27T02:28:05.213Z,1.20
2022-12-27T02:31:15.575Z,1.33
2022-12-27T02:34:23.902Z,1.20
2022-12-27T02:37:31.673Z,1.30
2022-12-27T02:40:54.224Z,1.30
2022-12-27T02:44:16.096Z,1.00
2022-12-27T02:47:40.942Z,1.30
2022-12-27T02:51:15.740Z,1.40
2022-12-27T02:54:37.355Z,1.77
2022-12-27T02:57:46.985Z,1.10
2022-12-27T03:01:20.563Z,1.30
2022-12-27T03:04:42.353Z,1.33
2022-12-27T03:07:52.500Z,1.20
2022-12-27T03:11:17.647Z,1.20
2022-12-27T03:14:45.281Z,1.33
2022-12-27T03:17:57.242Z,1.40
2022-12-27T03:21:21.059Z,1.20
2022-12-27T03:24:45.385Z,1.53
2022-12-27T03:28:09.955Z,1.40
2022-12-27T03:31:35.962Z,1.40
2022-12-27T03:34:42.373Z,1.40
2022-12-27T03:38:03.714Z,1.13
2022-12-27T03:41:25.753Z,1.50
2022-12-27T03:44:29.063Z,1.50
2022-12-27T03:47:40.105Z,1.67
2022-12-27T03:50:47.812Z,1.33
2022-12-27T03:53:55.962Z,2.10
2022-12-27T03:57:01.574Z,1.43
2022-12-27T04:00:06.681Z,1.30
2022-12-27T04:03:09.745Z,1.70
2022-12-27T04:06:13.062Z,1.27
2022-12-27T04:09:35.542Z,1.80
2022-12-27T04:12:56.342Z,1.77
2022-12-27T04:16:16.756Z,1.83
2022-12-27T04:19:37.163Z,2.83
2022-12-27T04:22:57.724Z,1.77
2022-12-27T04:26:19.589Z,2.10
2022-12-27T04:29:40.214Z,1.60
2022-12-27T04:33:00.686Z,1.97
2022-12-27T04:36:06.319Z,1.73
2022-12-27T04:39:09.748Z,1.37
2022-12-27T04:42:31.459Z,1.47
2022-12-27T04:45:52.109Z,1.40
2022-12-27T04:49:12.628Z,1.63
2022-12-27T04:52:35.574Z,1.93
2022-12-27T04:55:38.710Z,1.60
2022-12-27T04:59:03.045Z,1.80
2022-12-27T05:02:05.283Z,1.83
2022-12-27T05:05:09.617Z,1.97
2022-12-27T05:08:31.842Z,1.77
2022-12-27T05:11:52.451Z,1.67
2022-12-27T05:14:56.763Z,1.77
2022-12-27T05:17:59.724Z,1.97
2022-12-27T05:21:03.689Z,2.20
2022-12-27T05:24:25.139Z,2.17
2022-12-27T05:27:28.181Z,1.63
2022-12-27T05:30:33.866Z,1.93
2022-12-27T05:33:36.835Z,1.73
2022-12-27T05:36:39.790Z,1.77
2022-12-27T05:39:43.508Z,1.83
2022-12-27T05:42:46.467Z,1.70
2022-12-27T05:45:50.778Z,1.67
2022-12-27T05:48:53.767Z,2.10
2022-12-27T05:51:56.743Z,1.73
2022-12-27T05:54:59.907Z,2.00
2022-12-27T05:58:02.888Z,2.43
2022-12-27T06:01:09.981Z,2.47
2022-12-27T06:04:13.086Z,1.50
2022-12-27T06:07:16.375Z,2.03
2022-12-27T06:10:19.391Z,2.13
2022-12-27T06:13:22.386Z,2.13
2022-12-27T06:16:26.681Z,2.30
2022-12-27T06:19:29.689Z,2.00
2022-12-27T06:22:32.651Z,1.93
2022-12-27T06:25:38.136Z,1.90
2022-12-27T06:28:41.316Z,2.00
2022-12-27T06:31:45.676Z,1.90
2022-12-27T06:34:48.670Z,1.67
2022-12-27T06:37:51.648Z,1.60
2022-12-27T06:40:54.591Z,1.83
2022-12-27T06:43:58.956Z,1.40
2022-12-27T06:47:03.567Z,1.97
2022-12-27T06:50:07.534Z,1.50
2022-12-27T06:53:10.544Z,1.73
2022-12-27T06:56:17.475Z,1.57
2022-12-27T06:59:20.445Z,1.93
2022-12-27T07:02:24.825Z,1.30
2022-12-27T07:05:27.908Z,1.20
2022-12-27T07:08:30.927Z,1.60
2022-12-27T07:11:34.920Z,1.20
2022-12-27T07:14:37.940Z,1.63
2022-12-27T07:17:42.248Z,1.77
2022-12-27T07:20:45.346Z,1.83
2022-12-27T07:23:48.664Z,1.30
2022-12-27T07:26:51.657Z,1.73
2022-12-27T07:29:54.650Z,2.57
2022-12-27T07:32:58.942Z,1.87
2022-12-27T07:36:02.878Z,1.50
2022-12-27T07:39:06.743Z,1.53
2022-12-27T07:42:09.706Z,1.30
2022-12-27T07:45:12.717Z,1.70
2022-12-27T07:48:17.066Z,1.77
2022-12-27T07:51:20.120Z,2.57
2022-12-27T07:54:23.300Z,1.80
2022-12-27T07:57:26.351Z,1.50
2022-12-27T08:00:30.092Z,1.77
2022-12-27T08:03:34.787Z,1.53
2022-12-27T08:06:37.869Z,2.03
2022-12-27T08:09:42.920Z,1.30
2022-12-27T08:12:45.899Z,1.73
2022-12-27T08:15:49.001Z,1.73
2022-12-27T08:18:53.880Z,1.60
2022-12-27T08:21:56.827Z,1.53
2022-12-27T08:24:59.847Z,1.50
2022-12-27T08:28:06.990Z,1.07
2022-12-27T08:31:11.461Z,1.63
2022-12-27T08:34:15.870Z,2.60
2022-12-27T08:37:18.950Z,1.40
2022-12-27T08:40:21.930Z,1.53
2022-12-27T08:43:24.923Z,1.30
2022-12-27T08:46:27.942Z,1.43
2022-12-27T08:49:32.387Z,1.47
2022-12-27T08:52:35.367Z,1.50
2022-12-27T08:55:38.318Z,1.37
2022-12-27T08:58:41.294Z,1.17
2022-12-27T09:01:44.439Z,1.23
2022-12-27T09:04:48.956Z,1.50
2022-12-27T09:07:52.320Z,1.37
2022-12-27T09:10:55.287Z,1.20
2022-12-27T09:14:00.411Z,1.20
2022-12-27T09:17:03.540Z,1.67
2022-12-27T09:20:09.365Z,1.30
2022-12-27T09:23:12.611Z,1.57
2022-12-27T09:26:17.351Z,1.43
2022-12-27T09:29:20.329Z,2.13
2022-12-27T09:32:27.298Z,1.50
2022-12-27T09:35:35.307Z,1.43
2022-12-27T09:38:41.883Z,2.00
2022-12-27T09:45:21.937Z,1.37
2022-12-27T09:48:33.389Z,1.83
2022-12-27T09:51:46.742Z,1.47
2022-12-27T09:55:04.463Z,1.43
2022-12-27T09:58:24.388Z,2.07
2022-12-27T10:01:32.890Z,1.17
2022-12-27T10:05:09.975Z,1.33
2022-12-27T10:08:16.251Z,1.57
2022-12-27T10:11:38.548Z,1.57
2022-12-27T10:14:58.259Z,1.37
2022-12-27T10:18:14.229Z,1.33
2022-12-27T10:21:21.947Z,1.53
2022-12-27T10:24:34.892Z,1.50
2022-12-27T10:27:38.825Z,1.63
2022-12-27T10:30:43.082Z,1.27
2022-12-27T10:33:48.051Z,1.30
2022-12-27T10:36:52.379Z,1.47
2022-12-27T10:40:05.174Z,2.10
2022-12-27T10:43:17.699Z,1.03
2022-12-27T10:46:27.636Z,1.30
2022-12-27T10:49:35.504Z,1.57
2022-12-27T10:52:39.182Z,1.67
2022-12-27T10:55:43.493Z,1.00
2022-12-27T10:58:54.698Z,1.10
2022-12-27T11:02:18.369Z,1.87
2022-12-27T11:05:23.762Z,1.03
2022-12-27T11:08:29.868Z,1.40
2022-12-27T11:11:34.213Z,1.10
2022-12-27T11:14:37.554Z,1.40
2022-12-27T11:17:44.556Z,1.70
2022-12-27T11:20:49.868Z,1.23
2022-12-27T11:23:54.696Z,0.90
2022-12-27T11:27:00.122Z,1.10
2022-12-27T11:30:03.136Z,1.40
2022-12-27T11:33:24.401Z,1.17
2022-12-27T11:36:30.370Z,1.40
2022-12-27T11:39:41.460Z,1.30
2022-12-27T11:42:49.492Z,1.20
2022-12-27T11:45:52.951Z,1.53
2022-12-27T11:48:58.337Z,1.27
2022-12-27T11:52:35.404Z,1.07
2022-12-27T11:55:58.415Z,1.17
2022-12-27T11:59:28.936Z,1.27
2022-12-27T12:03:02.658Z,1.20
2022-12-27T12:06:15.356Z,1.20
2022-12-27T12:09:44.316Z,1.10
2022-12-27T12:13:09.728Z,1.57
2022-12-27T12:16:54.043Z,1.10
2022-12-27T12:20:18.577Z,1.50
2022-12-27T12:23:30.894Z,1.40
2022-12-27T12:26:39.950Z,1.43
2022-12-27T12:30:04.675Z,1.27
2022-12-27T12:33:28.164Z,1.77
2022-12-27T12:36:56.077Z,1.20
2022-12-27T12:40:25.191Z,1.17
2022-12-27T12:43:48.874Z,1.57
2022-12-27T12:46:58.216Z,1.33
2022-12-27T12:50:22.213Z,1.20
2022-12-27T12:53:46.928Z,1.60
2022-12-27T12:57:14.915Z,1.47
2022-12-27T13:00:37.567Z,1.20
2022-12-27T13:04:03.958Z,1.40
2022-12-27T13:07:36.196Z,1.33
2022-12-27T13:11:06.159Z,1.40
2022-12-27T13:14:23.652Z,1.70
2022-12-27T13:17:34.988Z,1.40
2022-12-27T13:21:04.630Z,1.30
2022-12-27T13:24:13.087Z,1.33
2022-12-27T13:27:26.665Z,1.07
2022-12-27T13:30:39.985Z,1.80
2022-12-27T13:33:55.648Z,1.30
2022-12-27T13:37:12.376Z,1.20
2022-12-27T13:40:29.512Z,1.40
2022-12-27T13:43:55.480Z,1.57
2022-12-27T13:47:28.062Z,1.67
2022-12-27T13:51:11.285Z,1.60
2022-12-27T13:54:42.790Z,1.47
2022-12-27T13:58:14.173Z,1.80
2022-12-27T14:01:36.876Z,1.23
2022-12-27T14:05:19.015Z,1.37
2022-12-27T14:08:34.649Z,1.43
2022-12-27T14:11:54.617Z,1.20
2022-12-27T14:15:01.126Z,1.53
2022-12-27T14:18:23.527Z,1.67
2022-12-27T14:22:11.963Z,1.07
2022-12-27T14:25:56.742Z,1.07
2022-12-27T14:29:37.616Z,1.83
2022-12-27T14:33:22.614Z,1.43
2022-12-27T14:37:24.932Z,1.77
2022-12-27T14:40:56.508Z,2.00
2022-12-27T14:44:44.407Z,1.70
2022-12-27T14:48:17.989Z,1.40
2022-12-27T14:52:01.667Z,1.50
2022-12-27T14:55:37.433Z,1.60
2022-12-27T14:59:03.562Z,1.67
2022-12-27T15:02:28.814Z,1.33
2022-12-27T15:05:42.104Z,2.00
2022-12-27T15:09:06.831Z,2.10
2022-12-27T15:12:19.859Z,1.93
2022-12-27T15:15:44.904Z,1.93
2022-12-27T15:19:03.285Z,1.60
2022-12-27T15:22:12.574Z,2.10
2022-12-27T15:25:26.606Z,1.67
2022-12-27T15:28:36.958Z,2.33
2022-12-27T15:31:50.109Z,1.97
2022-12-27T15:35:06.613Z,2.07
2022-12-27T15:38:13.240Z,2.13
2022-12-27T15:41:36.053Z,2.20
2022-12-27T15:44:49.660Z,2.37
2022-12-27T15:48:07.701Z,2.90
2022-12-27T15:51:21.591Z,2.70
2022-12-27T15:54:34.657Z,2.53
2022-12-27T15:58:01.852Z,1.97
2022-12-27T16:01:28.406Z,2.50
2022-12-27T16:04:47.105Z,2.50
2022-12-27T16:07:52.258Z,3.27
2022-12-27T16:10:56.909Z,3.03
2022-12-27T16:14:29.034Z,3.03
2022-12-27T16:17:39.754Z,2.20
2022-12-27T16:20:54.782Z,2.87
2022-12-27T16:24:04.347Z,2.83
2022-12-27T16:27:09.690Z,2.73
2022-12-27T16:30:14.795Z,2.83
2022-12-27T16:33:37.638Z,2.80
2022-12-27T16:36:46.961Z,2.83
2022-12-27T16:40:02.014Z,3.03
2022-12-27T16:43:52.416Z,3.40
2022-12-27T16:47:07.918Z,3.23
2022-12-27T16:50:41.795Z,3.97
2022-12-27T16:54:09.175Z,3.50
2022-12-27T16:57:34.009Z,3.80
2022-12-27T17:00:41.169Z,3.33
2022-12-27T17:03:50.368Z,3.33
2022-12-27T17:06:57.247Z,3.17
2022-12-27T17:10:40.881Z,3.27
2022-12-27T17:13:50.467Z,3.10
2022-12-27T17:16:58.195Z,3.53
2022-12-27T17:20:05.820Z,2.80
2022-12-27T17:23:08.986Z,3.27
2022-12-27T17:26:45.446Z,3.67
2022-12-27T17:30:05.789Z,3.20
2022-12-27T17:33:28.118Z,3.17
2022-12-27T17:36:43.082Z,3.47
2022-12-27T17:40:01.633Z,4.90
2022-12-27T17:43:38.339Z,4.60
2022-12-27T17:46:53.325Z,3.83
2022-12-27T17:50:00.036Z,3.23
2022-12-27T17:53:34.845Z,3.47
2022-12-27T17:57:01.682Z,4.37
2022-12-27T18:00:07.159Z,3.93
2022-12-27T18:03:15.438Z,3.97
2022-12-27T18:06:20.149Z,4.23
2022-12-27T18:09:35.824Z,4.17
2022-12-27T18:12:40.541Z,4.47
2022-12-27T18:15:46.195Z,4.30
2022-12-27T18:18:53.357Z,5.63
2022-12-27T18:21:58.551Z,5.00
2022-12-27T18:25:01.921Z,4.40
2022-12-27T18:28:07.313Z,5.20
2022-12-27T18:31:17.224Z,4.70
2022-12-27T18:34:26.523Z,5.03
2022-12-27T18:37:30.905Z,4.83
2022-12-27T18:40:35.123Z,5.17
2022-12-27T18:43:42.351Z,7.97
2022-12-27T18:46:49.893Z,4.67
2022-12-27T18:49:57.030Z,4.77
2022-12-27T18:53:02.233Z,4.43
2022-12-27T18:56:07.831Z,4.47
2022-12-27T18:59:23.101Z,4.83
2022-12-27T19:02:35.370Z,5.07
2022-12-27T19:05:40.058Z,6.00
2022-12-27T19:08:47.437Z,4.90
2022-12-27T19:11:53.010Z,4.83
2022-12-27T19:14:56.557Z,4.43
2022-12-27T19:18:02.519Z,4.70
2022-12-27T19:21:07.626Z,4.70
2022-12-27T19:24:33.472Z,4.50
2022-12-27T19:27:36.476Z,4.37
2022-12-27T19:30:43.157Z,5.23
2022-12-27T19:33:51.042Z,5.30
2022-12-27T19:36:56.118Z,5.03
2022-12-27T19:39:59.662Z,4.97
2022-12-27T19:43:02.676Z,4.40
2022-12-27T19:46:06.547Z,4.67
2022-12-27T19:52:34.413Z,5.00
2022-12-27T19:55:37.483Z,4.10
2022-12-27T19:58:40.449Z,5.30
2022-12-27T20:01:45.552Z,4.70
2022-12-27T20:04:49.918Z,4.80
2022-12-27T20:07:54.281Z,4.73
2022-12-27T20:10:58.064Z,4.53
2022-12-27T20:14:01.155Z,4.73
2022-12-27T20:17:04.193Z,4.87
2022-12-27T20:20:08.627Z,4.20
2022-12-27T20:23:13.159Z,4.53
2022-12-27T20:26:20.560Z,4.73
2022-12-27T20:29:23.877Z,5.37
2022-12-27T20:32:27.067Z,4.80
2022-12-27T20:35:30.088Z,5.03
2022-12-27T20:38:34.402Z,4.60
2022-12-27T20:41:37.742Z,5.30
2022-12-27T20:44:40.844Z,4.73
2022-12-27T20:47:44.293Z,5.10
2022-12-27T20:50:47.285Z,6.10
2022-12-27T20:53:55.442Z,5.83
2022-12-27T20:56:58.437Z,6.10
2022-12-27T21:00:01.530Z,6.27
2022-12-27T21:03:04.963Z,6.33
2022-12-27T21:06:10.070Z,6.90
2022-12-27T21:09:14.404Z,7.03
2022-12-27T21:12:17.617Z,7.13
2022-12-27T21:15:20.606Z,6.60
2022-12-27T21:18:23.616Z,6.03
2022-12-27T21:21:28.914Z,7.17
2022-12-27T21:24:33.576Z,6.70
2022-12-27T21:27:36.640Z,6.83
2022-12-27T21:30:39.642Z,6.67
2022-12-27T21:33:43.112Z,6.87
2022-12-27T21:36:46.323Z,6.47
2022-12-27T21:39:50.701Z,6.77
2022-12-27T21:42:54.785Z,6.87
2022-12-27T21:45:58.562Z,6.70
2022-12-27T21:49:03.342Z,6.20
2022-12-27T21:52:06.378Z,6.67
2022-12-27T21:55:11.151Z,6.23
2022-12-27T21:58:14.202Z,6.80
2022-12-27T22:01:19.001Z,6.93
2022-12-27T22:04:22.476Z,6.43
2022-12-27T22:07:25.483Z,6.33
2022-12-27T22:10:30.037Z,6.63
2022-12-27T22:13:33.439Z,6.00
2022-12-27T22:16:38.450Z,6.20
2022-12-27T22:19:41.438Z,5.83
2022-12-27T22:22:44.436Z,5.87
2022-12-27T22:25:48.763Z,5.40
2022-12-27T22:28:51.877Z,5.50
2022-12-27T22:31:54.883Z,5.43
2022-12-27T22:34:57.871Z,5.53
2022-12-27T22:38:01.072Z,4.80
2022-12-27T22:41:11.333Z,5.00
2022-12-27T22:44:15.733Z,5.20
2022-12-27T22:47:27.734Z,4.57
2022-12-27T22:50:31.120Z,4.37
2022-12-27T22:53:34.151Z,4.20
2022-12-27T22:56:40.636Z,4.60
2022-12-27T22:59:43.861Z,4.73
2022-12-27T23:02:47.212Z,4.60
2022-12-27T23:05:57.431Z,4.20
2022-12-27T23:09:00.654Z,3.83
2022-12-27T23:12:06.557Z,4.60
2022-12-27T23:15:10.537Z,4.27
2022-12-27T23:18:13.498Z,3.53
2022-12-27T23:21:21.481Z,3.50
2022-12-27T23:24:26.499Z,3.50
2022-12-27T23:27:30.837Z,3.73
2022-12-27T23:30:33.852Z,2.83
2022-12-27T23:33:36.897Z,3.07
2022-12-27T23:36:39.959Z,3.00
2022-12-27T23:39:42.960Z,3.00
2022-12-27T23:42:47.305Z,2.77
2022-12-27T23:45:50.452Z,3.20
2022-12-27T23:48:53.636Z,2.73
2022-12-27T23:51:56.614Z,2.50
2022-12-27T23:54:59.613Z,2.70
2022-12-27T23:58:03.956Z,2.70
